Time;durP1;ratioP1;P1;durP2;ratioP2;P2;SDS_P1;SDS_P2;PMS_P1;PMS_P2;Temp;Humidity;BMP_temperature;BMP_pressure;BME280_temperature;BME280_humidity;BME280_pressure;Samples;Min_cycle;Max_cycle;Signal;HPM_P1;HPM_P2
2023/10/03 00:01:31;;;;;;;8.27;3.90;;;9.60;99.90;;;;;;4210077;28;20044;-59
2023/10/03 00:03:32;;;;;;;8.83;3.50;;;9.60;99.90;;;;;;4209834;28;20041;-59
2023/10/03 00:05:35;;;;;;;7.30;3.90;;;9.60;99.90;;;;;;4209565;28;20096;-61
2023/10/03 00:07:36;;;;;;;7.40;3.43;;;9.60;99.90;;;;;;4210124;28;20048;-60
2023/10/03 00:09:37;;;;;;;8.53;3.40;;;9.60;99.90;;;;;;4209939;28;20044;-61
2023/10/03 00:11:38;;;;;;;9.30;3.87;;;9.60;99.90;;;;;;4210418;28;20512;-61
2023/10/03 00:13:41;;;;;;;9.23;4.07;;;9.60;99.90;;;;;;4209002;28;20123;-61
2023/10/03 00:15:45;;;;;;;8.63;4.10;;;9.60;99.90;;;;;;4210759;28;20052;-60
2023/10/03 00:17:47;;;;;;;5.43;3.03;;;9.60;99.90;;;;;;4209369;28;20656;-61
2023/10/03 00:19:48;;;;;;;7.60;3.90;;;9.60;99.90;;;;;;4214210;28;20101;-61
2023/10/03 00:21:49;;;;;;;11.17;3.37;;;9.60;99.90;;;;;;4212978;28;20069;-61
2023/10/03 00:23:50;;;;;;;7.67;3.60;;;9.60;99.90;;;;;;4213927;28;20044;-61
2023/10/03 00:25:54;;;;;;;7.30;3.87;;;9.50;99.90;;;;;;4212824;28;20466;-60
2023/10/03 00:27:59;;;;;;;8.10;4.10;;;9.60;99.90;;;;;;4213470;28;20389;-60
2023/10/03 00:30:00;;;;;;;10.27;3.80;;;9.50;99.90;;;;;;4212923;28;20031;-59
2023/10/03 00:32:01;;;;;;;8.67;4.00;;;9.50;99.90;;;;;;4213324;28;20077;-61
2023/10/03 00:34:02;;;;;;;11.30;4.60;;;9.40;99.90;;;;;;4212576;28;20040;-59
2023/10/03 00:36:04;;;;;;;10.37;4.50;;;9.40;99.90;;;;;;4212624;28;20036;-61
2023/10/03 00:38:13;;;;;;;7.60;4.00;;;9.40;99.90;;;;;;4212940;28;20114;-60
2023/10/03 00:42:22;;;;;;;9.37;3.93;;;9.30;99.90;;;;;;4210922;28;20082;-60
2023/10/03 00:44:25;;;;;;;6.43;3.47;;;9.40;99.90;;;;;;4211241;28;20032;-61
2023/10/03 00:46:27;;;;;;;5.63;3.10;;;9.30;99.90;;;;;;4213641;28;20120;-61
2023/10/03 00:48:28;;;;;;;9.13;3.50;;;9.30;99.90;;;;;;4212414;28;20093;-60
2023/10/03 00:50:31;;;;;;;8.90;3.97;;;9.30;99.90;;;;;;4213366;28;20117;-60
2023/10/03 00:52:32;;;;;;;7.17;3.60;;;9.30;99.90;;;;;;4212382;28;20027;-61
2023/10/03 00:54:34;;;;;;;6.57;3.77;;;9.20;99.90;;;;;;4213168;28;20592;-61
2023/10/03 00:56:35;;;;;;;8.87;4.47;;;9.20;99.90;;;;;;4212106;28;20039;-59
2023/10/03 00:58:36;;;;;;;8.73;3.97;;;9.10;99.90;;;;;;4213367;28;20065;-60
2023/10/03 01:00:48;;;;;;;11.90;4.63;;;9.10;99.90;;;;;;4211912;28;20470;-61
2023/10/03 01:02:50;;;;;;;11.80;5.13;;;9.10;99.90;;;;;;4199589;28;20040;-60
2023/10/03 01:04:53;;;;;;;8.97;4.57;;;9.00;99.90;;;;;;4212024;28;20035;-57
2023/10/03 01:06:55;;;;;;;10.07;4.83;;;9.00;99.90;;;;;;4213068;28;20121;-60
2023/10/03 01:09:00;;;;;;;15.37;4.53;;;9.00;99.90;;;;;;4212607;28;20108;-59
2023/10/03 01:11:02;;;;;;;9.13;4.10;;;9.00;99.90;;;;;;4212987;28;20077;-61
2023/10/03 01:13:13;;;;;;;8.47;4.33;;;9.00;99.90;;;;;;4212218;28;20052;-61
2023/10/03 01:15:16;;;;;;;8.20;3.77;;;9.00;99.90;;;;;;4212940;28;20101;-61
2023/10/03 01:17:18;;;;;;;9.73;4.17;;;9.10;99.90;;;;;;4212767;28;20101;-60
2023/10/03 01:21:21;;;;;;;7.87;3.97;;;9.00;99.90;;;;;;4212400;28;20410;-61
2023/10/03 01:23:26;;;;;;;8.63;4.00;;;8.90;99.90;;;;;;4212153;28;20097;-61
2023/10/03 01:25:27;;;;;;;12.67;4.30;;;8.90;99.90;;;;;;4212927;28;20047;-61
2023/10/03 01:27:28;;;;;;;10.80;4.60;;;8.90;99.90;;;;;;4211647;28;20106;-61
2023/10/03 01:29:30;;;;;;;7.17;4.27;;;8.80;99.90;;;;;;4212548;28;20036;-61
2023/10/03 01:31:31;;;;;;;6.03;4.27;;;8.80;99.90;;;;;;4210582;28;20498;-59
2023/10/03 01:33:33;;;;;;;11.90;5.10;;;8.70;99.90;;;;;;4213166;28;20044;-61
2023/10/03 01:35:35;;;;;;;10.77;4.53;;;8.70;99.90;;;;;;4211622;28;20427;-61
2023/10/03 01:37:38;;;;;;;6.80;4.30;;;8.60;99.90;;;;;;4212653;28;20020;-60
2023/10/03 01:39:39;;;;;;;10.60;4.07;;;8.60;99.90;;;;;;4212024;28;20016;-61
2023/10/03 01:41:42;;;;;;;8.37;3.80;;;8.60;99.90;;;;;;4212723;28;20108;-59
2023/10/03 01:43:43;;;;;;;8.53;3.87;;;8.50;99.90;;;;;;4211439;28;20032;-62
2023/10/03 01:45:44;;;;;;;7.67;3.97;;;8.50;99.90;;;;;;4212515;28;20502;-61
2023/10/03 01:47:49;;;;;;;7.87;4.47;;;8.50;99.90;;;;;;4211631;28;20040;-60
2023/10/03 01:49:52;;;;;;;6.67;3.67;;;8.50;99.90;;;;;;4208784;28;20113;-61
2023/10/03 01:51:55;;;;;;;5.53;3.17;;;8.50;99.90;;;;;;4211445;28;20443;-60
2023/10/03 01:53:56;;;;;;;8.27;3.80;;;8.50;99.90;;;;;;4211498;28;20370;-61
2023/10/03 01:55:58;;;;;;;8.17;3.93;;;8.50;99.90;;;;;;4212151;28;20028;-62
2023/10/03 01:57:59;;;;;;;9.80;4.10;;;8.50;99.90;;;;;;4211224;28;20059;-60
2023/10/03 02:00:00;;;;;;;7.20;3.50;;;8.50;99.90;;;;;;4212686;28;20040;-60
2023/10/03 02:02:03;;;;;;;7.27;3.73;;;8.50;99.90;;;;;;4211360;28;20032;-61
2023/10/03 02:04:05;;;;;;;6.27;3.80;;;8.60;99.90;;;;;;4212542;28;20060;-58
2023/10/03 02:06:07;;;;;;;7.60;3.50;;;8.50;99.90;;;;;;4210997;28;20032;-60
2023/10/03 02:10:17;;;;;;;9.47;4.07;;;8.50;99.90;;;;;;4211366;28;20165;-61
2023/10/03 02:12:21;;;;;;;12.87;4.60;;;8.50;99.90;;;;;;4212068;28;20039;-61
2023/10/03 02:14:22;;;;;;;6.77;4.47;;;8.50;99.90;;;;;;4210912;28;20073;-59
2023/10/03 02:16:23;;;;;;;9.00;3.77;;;8.50;99.90;;;;;;4195773;28;20423;-61
2023/10/03 02:18:24;;;;;;;7.37;3.47;;;8.50;99.90;;;;;;4202091;28;20492;-60
2023/10/03 02:20:25;;;;;;;6.27;3.37;;;8.50;99.90;;;;;;4211392;28;20028;-60
2023/10/03 02:22:26;;;;;;;8.53;4.03;;;8.50;99.90;;;;;;4211141;28;20024;-61
2023/10/03 02:24:28;;;;;;;5.90;3.53;;;8.40;99.90;;;;;;4210891;28;20024;-61
2023/10/03 02:26:32;;;;;;;9.57;4.20;;;8.40;99.90;;;;;;4211359;28;20040;-60
2023/10/03 02:28:33;;;;;;;9.57;3.60;;;8.40;99.90;;;;;;4211142;28;20049;-62
2023/10/03 02:30:34;;;;;;;10.10;4.03;;;8.40;99.90;;;;;;4211632;28;20546;-61
2023/10/03 02:32:35;;;;;;;8.17;4.30;;;8.40;99.90;;;;;;4210829;28;20036;-60
2023/10/03 02:34:37;;;;;;;9.73;3.57;;;8.40;99.90;;;;;;4211749;28;20850;-61
2023/10/03 02:36:38;;;;;;;9.30;3.87;;;8.40;99.90;;;;;;4210787;28;20028;-61
2023/10/03 02:38:40;;;;;;;8.63;3.97;;;8.40;99.90;;;;;;4211738;28;20028;-61
2023/10/03 02:40:42;;;;;;;14.90;4.60;;;8.40;99.90;;;;;;4210966;28;20032;-61
2023/10/03 02:42:44;;;;;;;13.63;4.30;;;8.30;99.90;;;;;;4211079;28;20040;-62
2023/10/03 02:44:45;;;;;;;8.50;4.23;;;8.30;99.90;;;;;;4207505;28;20066;-62
2023/10/03 02:46:48;;;;;;;10.20;4.23;;;8.20;99.90;;;;;;4211335;28;20052;-61
2023/10/03 02:48:49;;;;;;;7.33;3.80;;;8.20;99.90;;;;;;4210376;28;20310;-60
2023/10/03 02:50:51;;;;;;;6.97;3.57;;;8.10;99.90;;;;;;4211599;28;20031;-61
2023/10/03 02:52:55;;;;;;;7.53;3.63;;;8.10;99.90;;;;;;4210487;28;20065;-61
2023/10/03 02:54:56;;;;;;;9.07;4.13;;;8.10;99.90;;;;;;4210866;28;20486;-62
2023/10/03 02:56:57;;;;;;;8.70;4.10;;;8.10;99.90;;;;;;4210814;28;20035;-63
2023/10/03 02:58:59;;;;;;;15.73;4.50;;;8.10;99.90;;;;;;4211012;28;20496;-63
2023/10/03 03:01:00;;;;;;;7.13;4.10;;;8.00;99.90;;;;;;4210066;28;20173;-62
2023/10/03 03:03:02;;;;;;;7.17;3.90;;;8.00;99.90;;;;;;4210287;28;20492;-60
2023/10/03 03:05:05;;;;;;;9.60;3.20;;;8.00;99.90;;;;;;4210995;28;20066;-61
2023/10/03 03:07:07;;;;;;;6.20;3.30;;;8.00;99.90;;;;;;4210437;28;20211;-58
2023/10/03 03:09:08;;;;;;;7.40;3.70;;;8.00;99.90;;;;;;4211336;28;20028;-60
2023/10/03 03:11:11;;;;;;;11.57;4.20;;;7.90;99.90;;;;;;4210192;28;20028;-60
2023/10/03 03:13:13;;;;;;;13.63;5.23;;;7.90;99.90;;;;;;4211531;28;20044;-61
2023/10/03 03:15:33;;;;;;;9.10;3.97;;;7.80;99.90;;;;;;4210305;28;20458;-60
2023/10/03 03:17:34;;;;;;;13.45;5.22;;;7.80;99.90;;;;;;4211432;28;20024;-60
2023/10/03 03:19:36;;;;;;;10.27;5.00;;;7.70;99.90;;;;;;4209746;28;20028;-58
2023/10/03 03:21:40;;;;;;;9.20;5.17;;;7.70;99.90;;;;;;4211201;28;20081;-60
2023/10/03 03:23:43;;;;;;;12.73;5.10;;;7.70;99.90;;;;;;4209484;28;20066;-59
2023/10/03 03:25:45;;;;;;;13.73;5.27;;;7.70;99.90;;;;;;4211069;28;20442;-60
2023/10/03 03:27:46;;;;;;;15.00;5.30;;;7.70;99.90;;;;;;4209284;28;20057;-61
2023/10/03 03:32:08;;;;;;;7.77;3.87;;;7.70;99.90;;;;;;4184460;28;20032;-62
2023/10/03 03:34:11;;;;;;;10.43;4.33;;;7.60;99.90;;;;;;4208490;28;20073;-61
2023/10/03 03:36:17;;;;;;;10.50;4.30;;;7.60;99.90;;;;;;4209869;28;20028;-60
2023/10/03 03:38:18;;;;;;;7.50;4.00;;;7.60;99.90;;;;;;4210379;28;20479;-61
2023/10/03 03:40:29;;;;;;;8.27;4.60;;;7.60;99.90;;;;;;4210110;28;20390;-61
2023/10/03 03:42:30;;;;;;;13.40;4.77;;;7.50;99.90;;;;;;4210367;28;20093;-59
2023/10/03 03:44:33;;;;;;;10.87;5.07;;;7.40;99.90;;;;;;4209778;28;20032;-61
2023/10/03 03:46:34;;;;;;;16.50;6.00;;;7.40;99.90;;;;;;4209827;28;20044;-61
2023/10/03 03:48:36;;;;;;;17.83;6.17;;;7.40;99.90;;;;;;4209942;28;20105;-60
2023/10/03 03:50:38;;;;;;;13.87;5.40;;;7.30;99.90;;;;;;4209448;28;20103;-60
2023/10/03 03:52:41;;;;;;;13.63;5.63;;;7.30;99.90;;;;;;4210285;28;20101;-58
2023/10/03 03:54:42;;;;;;;9.77;5.33;;;7.30;99.90;;;;;;4208587;28;20040;-60
2023/10/03 03:56:45;;;;;;;23.07;5.93;;;7.20;99.90;;;;;;4210477;28;20409;-60
2023/10/03 03:58:48;;;;;;;12.77;5.60;;;7.10;99.90;;;;;;4210748;28;20028;-59
2023/10/03 04:00:51;;;;;;;16.40;5.90;;;7.10;99.90;;;;;;4210567;28;20105;-59
2023/10/03 04:02:52;;;;;;;12.77;5.37;;;7.00;99.90;;;;;;4209150;28;20040;-60
2023/10/03 04:04:53;;;;;;;12.73;5.37;;;6.90;99.90;;;;;;4210422;28;20058;-60
2023/10/03 04:06:55;;;;;;;11.47;5.77;;;6.90;99.90;;;;;;4209413;28;20421;-61
2023/10/03 04:08:56;;;;;;;12.50;6.17;;;6.80;99.90;;;;;;4210288;28;20035;-61
2023/10/03 04:10:58;;;;;;;12.23;6.07;;;6.70;99.90;;;;;;4209336;28;20028;-61
2023/10/03 04:13:00;;;;;;;15.60;6.20;;;6.70;99.90;;;;;;4209897;28;20093;-60
2023/10/03 04:15:05;;;;;;;10.27;5.67;;;6.70;99.90;;;;;;4209059;28;20044;-60
2023/10/03 04:17:08;;;;;;;19.70;6.07;;;6.70;99.90;;;;;;4209020;28;20518;-61
2023/10/03 04:19:13;;;;;;;11.17;6.33;;;6.60;99.90;;;;;;4208956;28;20545;-60
2023/10/03 04:21:14;;;;;;;11.27;6.40;;;6.60;99.90;;;;;;4209350;28;20078;-60
2023/10/03 04:23:15;;;;;;;17.43;6.93;;;6.60;99.90;;;;;;4209589;28;20044;-61
2023/10/03 04:25:20;;;;;;;14.40;6.83;;;6.50;99.90;;;;;;4208664;28;20027;-59
2023/10/03 04:27:25;;;;;;;12.13;7.30;;;6.40;99.90;;;;;;4209540;28;20082;-60
2023/10/03 04:29:26;;;;;;;19.27;7.40;;;6.40;99.90;;;;;;4201419;28;20044;-60
2023/10/03 04:31:27;;;;;;;13.40;6.77;;;6.40;99.90;;;;;;4202040;28;20044;-62
2023/10/03 04:33:28;;;;;;;19.37;7.27;;;6.40;99.90;;;;;;4208874;28;20040;-60
2023/10/03 04:35:30;;;;;;;14.67;7.60;;;6.40;99.90;;;;;;4210327;28;20036;-60
2023/10/03 04:37:31;;;;;;;16.10;7.40;;;6.40;99.90;;;;;;4207148;28;20620;-60
2023/10/03 04:39:35;;;;;;;16.97;7.37;;;6.40;99.90;;;;;;4211559;28;20051;-62
2023/10/03 04:41:42;;;;;;;19.50;7.27;;;6.40;99.90;;;;;;4208977;28;20044;-61
2023/10/03 04:43:43;;;;;;;23.63;6.83;;;6.40;99.90;;;;;;4210270;28;20497;-61
2023/10/03 04:45:44;;;;;;;21.53;7.57;;;6.40;99.90;;;;;;4208095;28;21116;-61
2023/10/03 04:47:47;;;;;;;22.80;8.87;;;6.60;99.90;;;;;;4210466;28;20101;-61
2023/10/03 04:49:48;;;;;;;12.87;7.53;;;6.70;99.90;;;;;;4208902;28;20032;-60
2023/10/03 04:51:49;;;;;;;18.73;8.20;;;6.90;99.90;;;;;;4209776;28;20028;-61
2023/10/03 04:53:50;;;;;;;15.83;7.23;;;7.20;99.90;;;;;;4208910;28;20383;-62
2023/10/03 04:55:51;;;;;;;20.07;7.37;;;7.30;99.90;;;;;;4209522;28;20032;-62
2023/10/03 04:57:53;;;;;;;14.30;6.80;;;7.60;99.90;;;;;;4209985;28;20048;-60
2023/10/03 04:59:59;;;;;;;23.60;7.83;;;7.90;99.90;;;;;;4209463;28;20545;-61
2023/10/03 05:02:01;;;;;;;19.40;6.80;;;8.20;99.90;;;;;;4210006;28;20425;-61
2023/10/03 05:04:04;;;;;;;17.67;6.50;;;8.50;99.90;;;;;;4208950;28;20059;-60
2023/10/03 05:06:05;;;;;;;16.30;7.07;;;8.90;99.90;;;;;;4212114;28;20032;-62
2023/10/03 05:08:06;;;;;;;24.80;8.27;;;9.20;99.90;;;;;;4211896;28;20101;-60
2023/10/03 05:10:08;;;;;;;20.70;6.80;;;9.40;99.90;;;;;;4213674;28;20036;-61
2023/10/03 05:12:10;;;;;;;15.93;6.70;;;9.60;99.90;;;;;;4211834;28;20056;-61
2023/10/03 05:14:12;;;;;;;16.03;6.80;;;9.50;99.90;;;;;;4213230;28;20655;-61
2023/10/03 05:16:13;;;;;;;13.00;6.93;;;9.40;99.90;;;;;;4212329;28;20121;-61
2023/10/03 05:18:14;;;;;;;23.07;6.60;;;9.80;99.90;;;;;;4212996;28;20506;-62
2023/10/03 05:20:17;;;;;;;14.37;6.80;;;10.20;99.90;;;;;;4212023;28;20024;-61
2023/10/03 05:22:18;;;;;;;17.87;6.73;;;10.30;99.90;;;;;;4213119;28;20545;-59
2023/10/03 05:24:19;;;;;;;17.63;7.17;;;10.30;99.90;;;;;;4211891;28;20024;-61
2023/10/03 05:26:21;;;;;;;20.03;7.10;;;10.40;99.90;;;;;;4212495;28;20016;-61
2023/10/03 05:28:22;;;;;;;19.73;8.40;;;10.50;99.90;;;;;;4212324;28;20097;-61
2023/10/03 05:30:25;;;;;;;19.07;7.10;;;10.50;99.90;;;;;;4212123;28;20077;-60
2023/10/03 05:32:28;;;;;;;15.87;7.30;;;10.70;99.90;;;;;;4212342;28;20461;-60
2023/10/03 05:34:31;;;;;;;23.93;6.93;;;10.70;99.90;;;;;;4211895;28;20032;-61
2023/10/03 05:36:32;;;;;;;19.27;6.97;;;11.00;99.90;;;;;;4212645;28;20163;-62
2023/10/03 05:38:33;;;;;;;20.03;7.27;;;11.30;99.90;;;;;;4211322;28;20129;-61
2023/10/03 05:40:34;;;;;;;18.40;6.17;;;11.70;99.90;;;;;;4213105;28;20036;-62
2023/10/03 05:42:35;;;;;;;14.40;5.97;;;12.00;99.90;;;;;;4211365;28;20546;-61
2023/10/03 05:44:37;;;;;;;17.30;6.17;;;12.30;99.90;;;;;;4212851;28;20040;-62
2023/10/03 05:46:39;;;;;;;9.97;5.10;;;12.50;99.90;;;;;;4211487;28;20515;-62
2023/10/03 05:48:43;;;;;;;11.20;5.87;;;12.80;99.90;;;;;;4212592;28;20043;-64
2023/10/03 05:50:44;;;;;;;17.17;5.63;;;13.30;99.90;;;;;;4211534;28;20490;-62
2023/10/03 05:52:45;;;;;;;11.80;5.85;;;13.80;99.90;;;;;;4212704;28;20032;-62
2023/10/03 05:54:47;;;;;;;17.77;5.50;;;14.30;99.90;;;;;;4211249;28;20023;-59
2023/10/03 05:56:49;;;;;;;14.25;5.20;;;14.70;99.90;;;;;;4212445;28;20024;-61
2023/10/03 05:58:50;;;;;;;16.77;5.88;;;14.70;99.90;;;;;;4211720;28;20050;-61
2023/10/03 06:00:51;;;;;;;15.25;5.30;;;14.50;99.90;;;;;;4210702;28;20036;-60
2023/10/03 06:02:53;;;;;;;24.33;7.13;;;14.30;99.90;;;;;;4211856;28;20117;-61
2023/10/03 06:04:54;;;;;;;23.88;5.38;;;14.30;99.90;;;;;;4211479;28;20101;-62
2023/10/03 06:06:55;;;;;;;28.20;5.50;;;14.70;99.90;;;;;;4212154;28;20050;-61
2023/10/03 06:08:57;;;;;;;24.33;6.63;;;15.00;99.90;;;;;;4210996;28;20040;-61
2023/10/03 06:11:03;;;;;;;19.95;5.63;;;15.20;99.90;;;;;;4212856;28;20097;-60
2023/10/03 06:13:10;;;;;;;32.10;7.38;;;15.60;99.90;;;;;;4210755;28;20105;-60
2023/10/03 06:15:14;;;;;;;24.88;6.53;;;16.10;99.90;;;;;;4212298;28;20105;-59
2023/10/03 06:17:17;;;;;;;35.85;7.50;;;16.50;99.90;;;;;;4210711;28;20032;-61
2023/10/03 06:19:18;;;;;;;42.28;7.15;;;16.30;99.90;;;;;;4212361;28;20480;-60
2023/10/03 06:21:19;;;;;;;36.42;6.78;;;16.20;99.90;;;;;;4211093;28;20423;-61
2023/10/03 06:23:20;;;;;;;28.00;6.60;;;16.30;99.90;;;;;;4211556;28;20089;-59
2023/10/03 06:25:23;;;;;;;31.75;6.35;;;16.30;99.90;;;;;;4210937;28;20085;-60
2023/10/03 06:27:26;;;;;;;27.30;8.35;;;16.60;99.90;;;;;;4211852;28;20122;-60
2023/10/03 06:29:28;;;;;;;23.55;6.28;;;16.50;99.90;;;;;;4210833;28;20040;-60
2023/10/03 06:31:30;;;;;;;17.52;5.40;;;16.10;99.90;;;;;;4211770;28;20024;-60
2023/10/03 06:33:31;;;;;;;19.20;5.60;;;15.50;99.90;;;;;;4210727;28;20541;-60
2023/10/03 06:35:32;;;;;;;20.25;10.00;;;15.50;99.90;;;;;;4210970;28;20945;-61
2023/10/03 06:37:34;;;;;;;14.63;6.20;;;15.40;99.90;;;;;;4211080;28;20594;-60
2023/10/03 06:39:35;;;;;;;14.68;6.40;;;15.30;99.90;;;;;;4210704;28;20086;-62
2023/10/03 06:41:38;;;;;;;11.48;5.75;;;15.30;99.90;;;;;;4211738;28;20074;-62
2023/10/03 06:43:39;;;;;;;17.02;6.10;;;15.50;99.90;;;;;;4210486;28;20462;-61
2023/10/03 06:45:40;;;;;;;9.40;5.28;;;15.30;99.90;;;;;;4211787;28;20056;-62
2023/10/03 06:47:41;;;;;;;9.90;5.13;;;15.40;99.90;;;;;;4210312;28;20449;-62
2023/10/03 06:49:43;;;;;;;9.75;4.53;;;15.90;99.90;;;;;;4211498;28;20097;-60
2023/10/03 06:51:48;;;;;;;9.43;4.82;;;15.90;99.90;;;;;;4210641;28;20105;-62
2023/10/03 06:53:49;;;;;;;8.85;5.38;;;15.90;99.90;;;;;;4211780;28;20048;-61
2023/10/03 06:55:50;;;;;;;13.77;4.80;;;15.90;99.90;;;;;;4210550;28;20039;-61
2023/10/03 06:57:51;;;;;;;13.05;4.35;;;15.60;99.90;;;;;;4211469;28;20109;-62
2023/10/03 06:59:54;;;;;;;11.05;4.75;;;15.40;99.90;;;;;;4210526;28;20430;-59
2023/10/03 07:01:55;;;;;;;8.60;4.10;;;15.70;99.90;;;;;;4211788;28;20552;-61
2023/10/03 07:03:57;;;;;;;13.05;5.30;;;15.90;99.90;;;;;;4210428;28;20043;-62
2023/10/03 07:05:59;;;;;;;12.55;4.10;;;16.00;99.90;;;;;;4211217;28;20533;-60
2023/10/03 07:08:00;;;;;;;9.95;3.88;;;16.10;99.90;;;;;;4210783;28;20043;-60
2023/10/03 07:10:01;;;;;;;15.50;4.80;;;16.30;99.90;;;;;;4211110;28;20044;-61
2023/10/03 07:12:03;;;;;;;11.95;4.85;;;16.50;99.90;;;;;;4210951;28;20051;-60
2023/10/03 07:14:04;;;;;;;9.77;4.43;;;16.80;99.90;;;;;;4210312;28;20101;-61
2023/10/03 07:16:05;;;;;;;8.52;4.30;;;17.30;99.90;;;;;;4210969;28;20028;-60
2023/10/03 07:18:06;;;;;;;5.13;3.50;;;17.60;99.90;;;;;;4210206;28;20127;-60
2023/10/03 07:20:10;;;;;;;10.02;3.95;;;17.70;99.90;;;;;;4211077;28;20028;-60
2023/10/03 07:22:11;;;;;;;10.43;4.35;;;17.60;99.90;;;;;;4210265;28;20032;-59
2023/10/03 07:24:13;;;;;;;12.07;3.58;;;17.40;99.90;;;;;;4211061;28;20054;-60
2023/10/03 07:26:14;;;;;;;10.30;4.70;;;17.20;99.90;;;;;;4209914;28;20108;-61
2023/10/03 07:28:15;;;;;;;7.97;3.15;;;17.30;99.90;;;;;;4210140;28;20048;-61
2023/10/03 07:30:16;;;;;;;9.73;3.80;;;16.70;99.90;;;;;;4209793;28;20077;-61
2023/10/03 07:32:17;;;;;;;9.38;3.67;;;16.50;99.90;;;;;;4210902;28;20082;-62
2023/10/03 07:34:18;;;;;;;5.47;3.05;;;16.00;99.90;;;;;;4209862;28;20077;-60
2023/10/03 07:36:20;;;;;;;7.97;3.72;;;15.70;99.90;;;;;;4210804;28;20353;-60
2023/10/03 07:38:21;;;;;;;8.98;3.70;;;15.50;99.90;;;;;;4210289;28;20028;-59
2023/10/03 07:40:23;;;;;;;9.13;3.80;;;15.50;99.90;;;;;;4210556;28;20077;-61
2023/10/03 07:42:24;;;;;;;7.95;3.28;;;15.40;99.90;;;;;;4210552;28;20244;-60
2023/10/03 07:44:25;;;;;;;6.35;3.42;;;15.40;99.90;;;;;;4210222;28;20032;-60
2023/10/03 07:46:27;;;;;;;7.03;4.32;;;15.20;99.90;;;;;;4209140;28;20040;-61
2023/10/03 07:48:29;;;;;;;8.38;3.35;;;15.00;99.90;;;;;;4209633;28;20048;-60
2023/10/03 07:50:31;;;;;;;8.15;3.35;;;15.00;99.90;;;;;;4210687;28;20044;-59
2023/10/03 07:52:32;;;;;;;7.32;3.60;;;15.10;99.90;;;;;;4209705;28;20097;-60
2023/10/03 07:54:36;;;;;;;8.98;3.95;;;15.40;99.90;;;;;;4210756;28;20502;-59
2023/10/03 07:56:42;;;;;;;5.97;3.45;;;15.60;99.90;;;;;;4209872;28;20152;-61
2023/10/03 07:58:44;;;;;;;8.30;4.65;;;15.50;99.90;;;;;;4210813;28;20016;-61
2023/10/03 08:00:45;;;;;;;11.48;4.50;;;15.30;99.90;;;;;;4209614;28;20506;-60
2023/10/03 08:02:49;;;;;;;8.27;4.13;;;15.50;99.90;;;;;;4210921;28;20105;-60
2023/10/03 08:04:50;;;;;;;8.32;3.83;;;15.40;99.90;;;;;;4209591;28;20468;-59
2023/10/03 08:06:52;;;;;;;9.02;4.10;;;15.40;99.90;;;;;;4210600;28;20097;-62
2023/10/03 08:08:55;;;;;;;7.72;3.63;;;15.50;99.90;;;;;;4209551;28;20113;-61
2023/10/03 08:10:58;;;;;;;7.30;3.83;;;15.80;99.90;;;;;;4210647;28;20040;-61
2023/10/03 08:12:59;;;;;;;11.77;4.60;;;16.10;99.90;;;;;;4209781;28;20040;-59
2023/10/03 08:15:00;;;;;;;10.68;4.45;;;16.20;99.90;;;;;;4210111;28;20036;-61
2023/10/03 08:17:03;;;;;;;7.88;4.40;;;16.00;99.90;;;;;;4209695;28;20082;-57
2023/10/03 08:19:08;;;;;;;6.88;4.05;;;15.90;99.90;;;;;;4209749;28;20096;-62
2023/10/03 08:21:09;;;;;;;11.00;4.50;;;15.80;99.90;;;;;;4208514;28;20073;-61
2023/10/03 08:23:10;;;;;;;8.05;4.18;;;15.50;99.90;;;;;;4208937;28;20094;-60
2023/10/03 08:25:11;;;;;;;8.15;4.25;;;15.50;99.90;;;;;;4210566;28;20039;-60
2023/10/03 08:27:21;;;;;;;8.40;3.97;;;15.60;99.90;;;;;;4209277;28;20048;-62
2023/10/03 08:29:23;;;;;;;7.03;4.20;;;15.70;99.90;;;;;;4210324;28;20369;-61
2023/10/03 08:31:27;;;;;;;8.27;3.88;;;15.70;99.90;;;;;;4208876;28;20647;-61
2023/10/03 08:33:30;;;;;;;6.22;4.20;;;15.80;99.90;;;;;;4210010;28;20024;-61
2023/10/03 08:35:35;;;;;;;13.70;4.30;;;15.70;99.90;;;;;;4208863;28;20081;-60
2023/10/03 08:37:38;;;;;;;12.27;4.93;;;15.60;99.90;;;;;;4210005;28;20028;-61
2023/10/03 08:39:40;;;;;;;9.63;4.72;;;15.80;99.90;;;;;;4210224;28;20044;-58
2023/10/03 08:41:48;;;;;;;9.43;4.32;;;15.90;99.90;;;;;;4214109;28;20040;-61
2023/10/03 08:43:56;;;;;;;9.10;4.28;;;15.70;99.90;;;;;;4212700;28;20036;-62
2023/10/03 08:45:58;;;;;;;10.90;6.18;;;15.90;99.90;;;;;;4213537;28;20085;-61
2023/10/03 08:48:05;;;;;;;12.45;7.20;;;16.00;99.90;;;;;;4212343;28;20399;-61
2023/10/03 08:50:11;;;;;;;16.08;7.05;;;16.00;99.90;;;;;;4213416;28;20468;-61
2023/10/03 08:52:12;;;;;;;10.82;5.75;;;16.00;99.90;;;;;;4212377;28;20040;-62
2023/10/03 08:54:14;;;;;;;15.25;5.45;;;16.40;99.90;;;;;;4213236;28;20078;-62
2023/10/03 08:56:18;;;;;;;12.43;5.10;;;16.60;99.90;;;;;;4212401;28;20085;-61
2023/10/03 08:58:19;;;;;;;13.27;6.50;;;16.60;99.90;;;;;;4212715;28;20028;-62
2023/10/03 09:00:25;;;;;;;14.35;5.28;;;16.70;99.90;;;;;;4212309;28;20062;-61
2023/10/03 09:02:27;;;;;;;9.07;4.20;;;16.70;99.90;;;;;;4212503;28;20491;-63
2023/10/03 09:04:38;;;;;;;10.15;4.05;;;16.90;99.90;;;;;;4212834;28;20093;-60
2023/10/03 09:06:39;;;;;;;7.93;4.65;;;16.80;99.90;;;;;;4212794;28;20358;-62
2023/10/03 09:08:43;;;;;;;8.02;3.83;;;17.00;99.90;;;;;;4212735;28;20086;-61
2023/10/03 09:10:52;;;;;;;13.07;4.78;;;17.00;99.90;;;;;;4210331;28;20036;-61
2023/10/03 09:13:04;;;;;;;9.30;4.68;;;17.00;99.90;;;;;;4213166;28;20052;-59
2023/10/03 09:15:09;;;;;;;8.60;3.88;;;17.10;99.90;;;;;;4211659;28;20440;-60
2023/10/03 09:17:21;;;;;;;10.10;4.03;;;17.40;99.90;;;;;;4212963;28;20670;-59
2023/10/03 09:19:41;;;;;;;7.13;3.75;;;17.50;99.90;;;;;;4210307;28;20036;-61
2023/10/03 09:21:45;;;;;;;;;;;17.70;99.90;;;;;;4212950;28;20082;-61
2023/10/03 09:24:14;;;;;;;8.52;4.35;;;17.70;99.90;;;;;;4211413;28;19912;-61
2023/10/03 09:26:19;;;;;;;5.85;3.67;;;17.70;99.90;;;;;;4211360;28;20048;-61
2023/10/03 09:28:27;;;;;;;6.97;3.53;;;17.70;99.90;;;;;;4212346;28;20496;-61
2023/10/03 09:30:37;;;;;;;6.53;3.35;;;17.60;99.90;;;;;;4212210;28;20093;-60
2023/10/03 09:32:39;;;;;;;8.15;3.38;;;17.70;99.90;;;;;;4211972;28;20048;-61
2023/10/03 09:34:42;;;;;;;8.77;3.20;;;17.70;99.90;;;;;;4212103;28;20062;-61
2023/10/03 09:36:43;;;;;;;6.75;3.40;;;17.80;99.90;;;;;;4211485;28;20044;-61
2023/10/03 09:38:45;;;;;;;7.07;3.50;;;18.00;99.90;;;;;;4212775;28;20044;-61
2023/10/03 09:40:49;;;;;;;9.43;3.33;;;18.10;99.90;;;;;;4211346;28;20036;-61
2023/10/03 09:42:54;;;;;;;5.93;3.22;;;18.10;99.90;;;;;;4212839;28;20097;-61
2023/10/03 09:44:58;;;;;;;7.60;3.80;;;18.10;99.90;;;;;;4211339;28;20085;-60
2023/10/03 09:47:06;;;;;;;9.10;3.10;;;18.10;99.90;;;;;;4212575;28;20492;-62
2023/10/03 09:49:10;;;;;;;4.88;2.28;;;18.30;99.90;;;;;;4211533;28;20121;-59
2023/10/03 09:51:13;;;;;;;9.02;2.78;;;18.50;99.90;;;;;;4211873;28;20036;-60
2023/10/03 09:53:16;;;;;;;5.88;2.38;;;18.50;99.90;;;;;;4211230;28;20426;-61
2023/10/03 09:55:21;;;;;;;6.97;3.58;;;18.40;99.90;;;;;;4212540;28;20579;-60
2023/10/03 09:57:22;;;;;;;6.03;2.45;;;18.50;99.90;;;;;;4211075;28;20369;-61
2023/10/03 09:59:24;;;;;;;7.18;2.72;;;18.50;99.90;;;;;;4212757;28;20066;-61
2023/10/03 10:01:30;;;;;;;6.95;2.80;;;18.60;99.90;;;;;;4211088;28;20533;-61
2023/10/03 10:03:37;;;;;;;5.55;2.17;;;18.80;99.90;;;;;;4212435;28;20039;-60
2023/10/03 10:05:50;;;;;;;5.07;2.53;;;19.00;99.90;;;;;;4211017;28;20105;-60
2023/10/03 10:08:29;;;;;;;4.97;2.53;;;19.00;99.90;;;;;;4212432;28;20069;-61
2023/10/03 10:10:33;;;;;;;8.50;2.55;;;19.10;99.90;;;;;;4211165;28;20455;-60
2023/10/03 10:12:38;;;;;;;8.00;2.65;;;19.20;99.90;;;;;;4212346;28;20089;-62
2023/10/03 10:15:01;;;;;;;8.02;3.17;;;19.20;99.90;;;;;;4211150;28;20130;-61
2023/10/03 10:17:05;;;;;;;9.88;2.72;;;19.00;99.70;;;;;;4211986;28;20028;-60
2023/10/03 10:19:08;;;;;;;4.95;2.75;;;19.00;99.90;;;;;;4210728;28;20025;-61
2023/10/03 10:21:37;;;;;;;6.45;2.92;;;19.00;99.90;;;;;;4211734;28;20094;-61
2023/10/03 10:23:46;;;;;;;7.10;2.47;;;19.00;99.90;;;;;;4210901;28;20032;-61
2023/10/03 10:25:57;;;;;;;6.78;2.95;;;19.10;99.90;;;;;;4212109;28;20035;-61
2023/10/03 10:28:02;;;;;;;8.75;3.00;;;19.10;99.90;;;;;;4210878;28;20032;-61
2023/10/03 10:30:13;;;;;;;6.43;3.47;;;19.10;99.80;;;;;;4211743;28;20545;-61
2023/10/03 10:32:19;;;;;;;8.75;3.13;;;19.00;99.80;;;;;;4210480;28;20113;-61
2023/10/03 10:34:23;;;;;;;5.95;3.05;;;19.00;99.90;;;;;;4211921;28;20090;-61
2023/10/03 10:37:03;;;;;;;9.70;3.20;;;19.00;99.90;;;;;;4210552;28;20133;-61
2023/10/03 10:39:04;;;;;;;5.90;2.90;;;18.90;99.70;;;;;;4211785;28;20077;-62
2023/10/03 10:41:17;;;;;;;9.20;3.08;;;19.00;99.90;;;;;;4210659;28;20028;-60
2023/10/03 10:43:20;;;;;;;7.65;3.50;;;18.90;99.30;;;;;;4212027;28;20040;-61
2023/10/03 10:45:23;;;;;;;8.68;2.80;;;18.90;99.50;;;;;;4209125;28;20040;-61
2023/10/03 10:47:27;;;;;;;10.57;3.20;;;18.90;99.50;;;;;;4211570;28;20085;-61
2023/10/03 10:49:30;;;;;;;6.30;2.80;;;19.10;99.50;;;;;;4210569;28;20044;-61
2023/10/03 10:51:33;;;;;;;6.50;2.90;;;19.20;99.20;;;;;;4212093;28;20314;-61